Northolt, United Kingdom

11:30 AM BST on July 23, 2016 (GMT +0100)
Ruislip Manor | | Change Station

Elev 131 ft 51.57 °N, 0.41 °W | Updated 30 seconds ago

Clear
Clear
81.0 °F
Feels Like 82 °F
N
1.6
Wind Variable Wind from West
Gusts 4.5 mph

Today
High -- | Low -- °F
--% Chance of Precip.
Yesterday
High -- | Low -- °F
Precip. -- in
Pressure 30.12 in
Visibility 6.2 miles
Clouds
Heat Index 82 °F
Dew Point 61 °F
Humidity 51%
Rainfall 0.00 in
Snow Depth Not available.
5:12 AM 9:02 PM
Waning Gibbous, 86% visible
METAR EGLL 231020Z AUTO 21006KT 150V270 9999 NCD 25/15 Q1020 NOSIG
Pressure 30.12 in
Visibility 6.2 miles
Clouds
Heat Index 82 °F
Dew Point 61 °F
Humidity 51%
Rainfall 0.00 in
Snow Depth Not available.
5:12 AM 9:02 PM
Waning Gibbous, 86% visible
METAR EGLL 231020Z AUTO 21006KT 150V270 9999 NCD 25/15 Q1020 NOSIG

10-Day Weather Forecast

×

Almanac

Astronomy

Jul. 23, 2016 Rise Set
Actual Time
Civil Twilight
Nautical Twilight
Astronomical Twilight
Moon
Length of Visible Light
Length of Day
Tomorrow will be .
, % of the Moon is Illuminated

Today's Extremes

Country Highs Country Lows

Community

WunderPhotos

Upload Photos

1,926,791 photos uploaded!

WunderBlog® & News

Nearby

Air Quality

  Air Quality AQ Index Pollutant
Not available.

Snow Depth

Station Depth Elevation

Earthquake Activity

City Distance Mag. Time & Date
Minimum magnitude displayed is 2.5.

Coastal Water Temperatures

Place Temperature

Stations

Nearby Weather Stations

Station Location Temp. Windchill Dew Point Humidity Wind Precip. Elev Updated Type